Nearby METAR Reports

 

ENCN - Kristiansand/Kje, Norway
Distance from station: N 17km
Oppdatert: 23/02/2024 03:20
Regn, Hovedsaklig skyet
Regn, Hovedsaklig skyet
 Vind fra Ø
Vind: Ø 28 km/h
Temperatur: 6°C
Wind Chill: 2°C
Duggpunkt: 5°C
Fuktighet: 93%
Barometer: 965 hPa
Oversikt: Regn
Clouds: Hovedsaklig skyet
Visibility: 2 km
Cloud details: Few Clouds 30 m
Hovedsaklig skyet 152 m
Hovedsaklig skyet 244 m
2024/02/23 02:20 ENCN 230220Z AUTO 09015KT 2400 RA FEW001/// BKN005/// BKN008/// 06/05 Q0965 REDZ
EKSN - Sindal Airport, Denmark
Distance from station: ØSØ 145km
Oppdatert: 30/12/2021 14:50
NOT Current
Mist, Hovedsaklig skyet
Mist, Hovedsaklig skyet
 Vind fra SV
Vind: SV 26 km/h
Temperatur: 7°C
Wind Chill: 3°C
Duggpunkt: 7°C
Fuktighet: 100%
Barometer: 999 hPa
Oversikt: Mist
Clouds: Hovedsaklig skyet
Visibility: 5 km
Cloud details: Delvis skyet 183 m
Hovedsaklig skyet 244 m
2021/12/30 13:50 EKSN 301350Z 23014KT 4500 BR SCT006 BKN008 07/07 Q0999
 
EKYT - Alborg, Denmark
Distance from station: SØ 153km
Oppdatert: 23/02/2024 03:20
Lett regn, Overskyet
Lett regn, Overskyet
 Vind fra SØ
Vind: SØ 24 km/h
Temperatur: 8°C
Wind Chill: 4°C
Duggpunkt: 7°C
Fuktighet: 93%
Barometer: 965 hPa
Oversikt: Lett regn
Clouds: Overskyet
Visibility: 10 km
Cloud details: Delvis skyet 213 m
Overskyet 1707 m
2024/02/23 02:20 EKYT 230220Z AUTO 13013KT 9999 -RA SCT007/// OVC056/// 08/07 Q0965 RERA
ENSN - Skien/Geiterygge, Norway
Distance from station: NØ 153km
Oppdatert: 09/11/2015 09:50
NOT Current
Klart
Klart
 Vind fra SSV
Vind: SSV 19 km/h, Vindkast: 41 km/h
Temperatur: 7°C
Wind Chill: 4°C
Duggpunkt: 3°C
Fuktighet: 76%
Barometer: 1000 hPa
Oversikt: Klart
Visibility: greater than 10 km
2015/11/09 08:50 ENSN 090850Z 20010G22KT 150V240 CAVOK 07/03 Q1000
 
ENZV - Stavanger/Sola(A, Norway
Distance from station: NV 166km
Oppdatert: 23/02/2024 03:20
Regn, Overskyet
Regn, Overskyet
 Vind fra N
Vind: N 17 km/h
Temperatur: 5°C
Wind Chill: 2°C
Duggpunkt: 4°C
Fuktighet: 93%
Barometer: 965 hPa
Oversikt: Regn
Clouds: Overskyet
Visibility: 7 km
Cloud details: Few Clouds 335 m
Hovedsaklig skyet 488 m
Overskyet 762 m
2024/02/23 02:20 ENZV 230220Z AUTO 36009KT 7000 RA FEW011/// BKN016/// OVC025/// 05/04 Q0965
ENNO - Notodden, Norway
Distance from station: NNØ 182km
Oppdatert: 22/02/2024 18:50
NOT Current
Nearby showers, Hovedsaklig skyet
Nearby showers, Hovedsaklig skyet
 Vind fra varies
Vind: varies 2 km/h
Temperatur: 3°C
Duggpunkt: 2°C
Fuktighet: 93%
Barometer: 982 hPa
Oversikt: Nearby Showers
Clouds: Hovedsaklig skyet
Visibility: 10 km
Cloud details: Delvis skyet 579 m
Hovedsaklig skyet 732 m
2024/02/22 17:50 ENNO 221750Z VRB01KT 9999 VCSH SCT019 BKN024 03/02 Q0982
 
ENTO - Torp (civ/Nor-Af, Norway
Distance from station: NØ 183km
Oppdatert: 23/02/2024 03:20
Mist, Overskyet
Mist, Overskyet
 Vind fra Ø
Vind: Ø 15 km/h
Temperatur: 4°C
Wind Chill: 1°C
Duggpunkt: 4°C
Fuktighet: 100%
Barometer: 972 hPa
Oversikt: Mist
Clouds: Overskyet
Visibility: 5 km
Cloud details: Overskyet 61 m
2024/02/23 02:20 ENTO 230220Z AUTO 08008KT 050V120 5000 BR OVC002/// 04/04 Q0972 REDZ
EKKA - Karup (dan-Afb), Denmark
Distance from station: SSØ 209km
Oppdatert: 23/02/2024 03:20
Hovedsaklig skyet
Hovedsaklig skyet
 Vind fra SSØ
Vind: SSØ 31 km/h, Vindkast: 54 km/h
Temperatur: 6°C
Wind Chill: 1°C
Duggpunkt: 3°C
Fuktighet: 81%
Barometer: 963 hPa
Clouds: Hovedsaklig skyet
Visibility: 10 km
Cloud details: Hovedsaklig skyet 579 m
2024/02/23 02:20 EKKA 230220Z AUTO 16017G29KT 120V180 9999 BKN019/// 06/03 Q0963
 
ENHD - Haugesund/Karmoy, Norway
Distance from station: NV 216km
Oppdatert: 23/02/2024 03:20
Lett regn, Hovedsaklig skyet
Lett regn, Hovedsaklig skyet
 Vind fra N
Vind: N 33 km/h
Temperatur: 3°C
Wind Chill: -3°C
Duggpunkt: 2°C
Fuktighet: 93%
Barometer: 966 hPa
Oversikt: Lett regn
Clouds: Hovedsaklig skyet
Visibility: 10 km
Cloud details: Few Clouds 122 m
Hovedsaklig skyet 244 m
Hovedsaklig skyet 457 m
2024/02/23 02:20 ENHD 230220Z AUTO 35018KT 9999 -RA FEW004/// BKN008/// BKN015/// 03/02 Q0966 RERASN
ENRY - Rygge (nor-Afb), Norway
Distance from station: NØ 216km
Oppdatert: 23/02/2024 03:20
Overskyet
Overskyet
 Vind fra Ø
Vind: Ø 22 km/h
Temperatur: 4°C
Wind Chill: -1°C
Duggpunkt: 3°C
Fuktighet: 93%
Barometer: 973 hPa
Clouds: Overskyet
Visibility: 10 km
Cloud details: Overskyet 152 m
2024/02/23 02:20 ENRY 230220Z AUTO 10012KT 9999 OVC005/// 04/03 Q0973
 
ESGP - Goteborg/Save (a, Sweden
Distance from station: Ø 230km
Oppdatert: 23/02/2024 03:20
Regn, Hovedsaklig skyet
Regn, Hovedsaklig skyet
 Vind fra ØSØ
Vind: ØSØ 24 km/h
Temperatur: 7°C
Wind Chill: 3°C
Duggpunkt: 5°C
Fuktighet: 87%
Barometer: 971 hPa
Oversikt: Regn
Clouds: Hovedsaklig skyet
Visibility: 7 km
Cloud details: Few Clouds 274 m
Hovedsaklig skyet 396 m
Hovedsaklig skyet 457 m
2024/02/23 02:20 ESGP 230220Z AUTO 12013KT 7000 RA FEW009/// BKN013/// BKN015/// 07/05 Q0971
EKVJ - Stauning Airport, Denmark
Distance from station: S 233km
Oppdatert: 23/02/2024 03:20
Heavy drizzle, Overskyet
Heavy drizzle, Overskyet
 Vind fra SSØ
Vind: SSØ 31 km/h, Vindkast: 52 km/h
Barometer: 962 hPa
Oversikt: Heavy Drizzle
Clouds: Overskyet
Visibility: 2 km
Cloud details: Delvis skyet 183 m
Hovedsaklig skyet 305 m
Overskyet 549 m
2024/02/23 02:20 EKVJ 230220Z AUTO 16017G28KT 130V190 2100 +DZ SCT006/// BKN010/// OVC018/// ///// Q0962
 
ENSO - Stord/Soerstokke, Norway
Distance from station: NV 246km
Oppdatert: 22/02/2024 19:20
NOT Current
Lett regn, Showers, Hovedsaklig skyet
Lett regn, Showers, Hovedsaklig skyet
 Vind fra S
Vind: S 20 km/h
Temperatur: 6°C
Wind Chill: 2°C
Duggpunkt: 5°C
Fuktighet: 93%
Barometer: 974 hPa
Oversikt: Lett regn, Showers
Clouds: Hovedsaklig skyet
Visibility: 10 km
Cloud details: Few Clouds 457 m
Hovedsaklig skyet 914 m
2024/02/22 18:20 ENSO 221820Z 18011KT 9999 -SHRA FEW015 BKN030 06/05 Q0974
EKAH - Tirstrup (civ/Mi, Denmark
Distance from station: SØ 252km
Oppdatert: 23/02/2024 03:20
Hovedsaklig skyet
Hovedsaklig skyet
 Vind fra S
Vind: S 26 km/h, Vindkast: 57 km/h
Temperatur: 7°C
Wind Chill: 3°C
Duggpunkt: 4°C
Fuktighet: 81%
Barometer: 969 hPa
Clouds: Hovedsaklig skyet
Visibility: 10 km
Cloud details: Hovedsaklig skyet 1128 m
2024/02/23 02:20 EKAH 230220Z AUTO 18014G31KT 140V220 9999 BKN037/// 07/04 Q0969
 
ESGT - Trollhattan (pvt, Sweden
Distance from station: Ø 255km
Oppdatert: 23/02/2024 03:20
Overskyet
Overskyet
 Vind fra Ø
Vind: Ø 26 km/h
Temperatur: 6°C
Wind Chill: 2°C
Duggpunkt: 4°C
Fuktighet: 87%
Barometer: 973 hPa
Clouds: Overskyet
Visibility: 10 km
Cloud details: Overskyet 366 m
2024/02/23 02:20 ESGT 230220Z AUTO 10014KT 9999 OVC012/// 06/04 Q0973
ESGG - Goteborg/Landvet, Sweden
Distance from station: Ø 257km
Oppdatert: 23/02/2024 03:20
Lett regn, Overskyet
Lett regn, Overskyet
 Vind fra ØSØ
Vind: ØSØ 26 km/h
Temperatur: 5°C
Wind Chill: 1°C
Duggpunkt: 5°C
Fuktighet: 100%
Barometer: 972 hPa
Oversikt: Lett regn
Clouds: Overskyet
Visibility: 8 km
Cloud details: Overskyet 152 m
2024/02/23 02:20 ESGG 230220Z 12014KT 090V150 8000 -RA OVC005 05/05 Q0972
 
EKBI - Billund Airport, Denmark
Distance from station: SSØ 269km
Oppdatert: 23/02/2024 03:20
Yr, Mist, Overskyet
Yr, Mist, Overskyet
 Vind fra S
Vind: S 41 km/h, Vindkast: 72 km/h
Temperatur: 5°C
Wind Chill: -1°C
Duggpunkt: 4°C
Fuktighet: 93%
Barometer: 965 hPa
Oversikt: Yr, Mist
Clouds: Overskyet
Visibility: 3 km
Cloud details: Overskyet 244 m
2024/02/23 02:20 EKBI 230220Z AUTO 19022G39KT 160V220 3100 DZ BR OVC008/// 05/04 Q0965
EKHN - Horns Rev B Heli, Denmark
Distance from station: S 274km
Oppdatert: 09/08/2016 14:20
NOT Current
Few Clouds
Few Clouds
 Vind fra VNV
Vind: VNV 50 km/h, Vindkast: 72 km/h
Temperatur: 14°C
Duggpunkt: 10°C
Fuktighet: 77%
Barometer: 1018 hPa
Clouds: Few Clouds
Visibility: 10 km
Cloud details: Few Clouds 1158 m
Few Clouds 2438 m
2016/08/09 12:20 EKHN 091220Z AUTO 29027G39KT 270V340 9999NDV FEW038/// FEW080/// 14/10 Q1018
 
ESIB - Satenas (swe-Afb, Sweden
Distance from station: Ø 277km
Oppdatert: 23/02/2024 03:20
Overskyet
Overskyet
 Vind fra ØSØ
Vind: ØSØ 30 km/h
Temperatur: 6°C
Wind Chill: 2°C
Duggpunkt: 4°C
Fuktighet: 87%
Barometer: 974 hPa
Clouds: Overskyet
Visibility: 10 km
Cloud details: Overskyet 366 m
2024/02/23 02:20 ESIB 230220Z AUTO 11016KT 9999 OVC012/// 06/04 Q0974
EKHR - Horns Rev B Heli, Denmark
Distance from station: S 282km
Oppdatert: 04/10/2016 06:20
NOT Current
Klart
Klart
 Vind fra Ø
Vind: Ø 4 km/h
Temperatur: 11°C
Duggpunkt: -49°C
Fuktighet: 0%
Barometer: 1038 hPa
Clouds: Klart
Visibility: 10 km
2016/10/04 04:20 EKHR 040420Z AUTO 08002KT 9999NDV NCD 11/M49 Q1038